Morganfld, Kentucky
Current Conditions -  °F | °C
As of 8:35 AM on Saturday 22 Nov 2014 (Local Time) from KEHR Reporting Station
Overcast Overcast  
Wind Chill: 54°   Ceiling: 10000
Heat Index: 54°   Visibility: 10mi
Dew Point: 39°   Wind: 13mph
Humidity: 58%   Direction: 190°S
Pressure: 30.24"   Gusts: 21mph
Location:  37.6418°N, 87.8654°W
Report Text: KEHR 221435Z AUTO 19011G18KT 10SM OVC100 12/04 A3024 RMK AO1
Loading
Personal Weather Stations






























Interactive Weather Map New forecast layout! Learn more

10-Day Weather Forecast

Advertisements
Track Severe Weather on mobile